sensor_id;sensor_type;location;lat;lon;timestamp;P1;P2;P0
64138;PMS5003;50435;43.700;-79.318;2023-08-17T00:00:02;55;49;
64138;PMS5003;50435;43.700;-79.318;2023-08-17T00:02:30;45;43;
64138;PMS5003;50435;43.700;-79.318;2023-08-17T00:04:58;52;48;
64138;PMS5003;50435;43.700;-79.318;2023-08-17T00:07:25;51;47;
64138;PMS5003;50435;43.700;-79.318;2023-08-17T00:09:53;44;40;
64138;PMS5003;50435;43.700;-79.318;2023-08-17T00:12:20;51;51;
64138;PMS5003;50435;43.700;-79.318;2023-08-17T00:14:47;61;53;
64138;PMS5003;50435;43.700;-79.318;2023-08-17T00:17:15;53;50;
64138;PMS5003;50435;43.700;-79.318;2023-08-17T00:19:42;55;49;
64138;PMS5003;50435;43.700;-79.318;2023-08-17T00:22:09;59;53;
64138;PMS5003;50435;43.700;-79.318;2023-08-17T00:24:37;61;58;
64138;PMS5003;50435;43.700;-79.318;2023-08-17T00:27:04;56;50;
64138;PMS5003;50435;43.700;-79.318;2023-08-17T00:29:31;56;53;
64138;PMS5003;50435;43.700;-79.318;2023-08-17T00:31:59;58;51;
64138;PMS5003;50435;43.700;-79.318;2023-08-17T00:34:27;59;53;
64138;PMS5003;50435;43.700;-79.318;2023-08-17T00:36:54;59;50;
64138;PMS5003;50435;43.700;-79.318;2023-08-17T00:39:22;58;52;
64138;PMS5003;50435;43.700;-79.318;2023-08-17T00:41:49;60;54;
64138;PMS5003;50435;43.700;-79.318;2023-08-17T00:44:17;58;55;
64138;PMS5003;50435;43.700;-79.318;2023-08-17T00:46:44;59;54;
64138;PMS5003;50435;43.700;-79.318;2023-08-17T00:49:12;60;52;
64138;PMS5003;50435;43.700;-79.318;2023-08-17T00:51:39;64;52;
64138;PMS5003;50435;43.700;-79.318;2023-08-17T00:54:07;61;56;
64138;PMS5003;50435;43.700;-79.318;2023-08-17T00:56:36;63;57;
64138;PMS5003;50435;43.700;-79.318;2023-08-17T00:59:04;58;53;
64138;PMS5003;50435;43.700;-79.318;2023-08-17T01:01:31;64;54;
64138;PMS5003;50435;43.700;-79.318;2023-08-17T01:03:59;64;58;
64138;PMS5003;50435;43.700;-79.318;2023-08-17T01:06:26;59;52;
64138;PMS5003;50435;43.700;-79.318;2023-08-17T01:08:53;60;58;
64138;PMS5003;50435;43.700;-79.318;2023-08-17T01:11:24;64;57;
64138;PMS5003;50435;43.700;-79.318;2023-08-17T01:13:59;58;55;
64138;PMS5003;50435;43.700;-79.318;2023-08-17T01:16:33;59;55;
64138;PMS5003;50435;43.700;-79.318;2023-08-17T01:19:04;60;52;
64138;PMS5003;50435;43.700;-79.318;2023-08-17T01:21:36;54;48;
64138;PMS5003;50435;43.700;-79.318;2023-08-17T01:24:08;57;53;
64138;PMS5003;50435;43.700;-79.318;2023-08-17T01:26:37;60;54;
64138;PMS5003;50435;43.700;-79.318;2023-08-17T01:29:04;52;49;
64138;PMS5003;50435;43.700;-79.318;2023-08-17T01:31:34;59;50;
64138;PMS5003;50435;43.700;-79.318;2023-08-17T01:34:08;57;52;
64138;PMS5003;50435;43.700;-79.318;2023-08-17T01:36:40;55;51;
64138;PMS5003;50435;43.700;-79.318;2023-08-17T01:39:13;60;50;
64138;PMS5003;50435;43.700;-79.318;2023-08-17T01:41:43;61;52;
64138;PMS5003;50435;43.700;-79.318;2023-08-17T01:44:13;61;56;
64138;PMS5003;50435;43.700;-79.318;2023-08-17T01:46:41;52;47;
64138;PMS5003;50435;43.700;-79.318;2023-08-17T01:49:09;55;51;
64138;PMS5003;50435;43.700;-79.318;2023-08-17T01:51:36;62;55;
64138;PMS5003;50435;43.700;-79.318;2023-08-17T01:54:04;53;51;
64138;PMS5003;50435;43.700;-79.318;2023-08-17T01:56:32;55;51;
64138;PMS5003;50435;43.700;-79.318;2023-08-17T01:59:01;63;59;
64138;PMS5003;50435;43.700;-79.318;2023-08-17T02:01:28;58;50;
64138;PMS5003;50435;43.700;-79.318;2023-08-17T02:03:56;58;51;
64138;PMS5003;50435;43.700;-79.318;2023-08-17T02:06:24;62;55;
64138;PMS5003;50435;43.700;-79.318;2023-08-17T02:08:51;56;53;
64138;PMS5003;50435;43.700;-79.318;2023-08-17T02:11:18;60;51;
64138;PMS5003;50435;43.700;-79.318;2023-08-17T02:13:46;54;48;
64138;PMS5003;50435;43.700;-79.318;2023-08-17T02:16:13;61;58;
64138;PMS5003;50435;43.700;-79.318;2023-08-17T02:18:41;48;48;
64138;PMS5003;50435;43.700;-79.318;2023-08-17T02:21:08;53;47;
64138;PMS5003;50435;43.700;-79.318;2023-08-17T02:23:35;60;53;
64138;PMS5003;50435;43.700;-79.318;2023-08-17T02:26:03;50;49;
64138;PMS5003;50435;43.700;-79.318;2023-08-17T02:28:31;52;48;
64138;PMS5003;50435;43.700;-79.318;2023-08-17T02:30:58;55;52;
64138;PMS5003;50435;43.700;-79.318;2023-08-17T02:33:26;55;47;
64138;PMS5003;50435;43.700;-79.318;2023-08-17T02:35:54;56;48;
64138;PMS5003;50435;43.700;-79.318;2023-08-17T02:38:21;54;51;
64138;PMS5003;50435;43.700;-79.318;2023-08-17T02:40:48;53;49;
64138;PMS5003;50435;43.700;-79.318;2023-08-17T02:43:16;58;57;
64138;PMS5003;50435;43.700;-79.318;2023-08-17T02:45:44;59;52;
64138;PMS5003;50435;43.700;-79.318;2023-08-17T02:48:11;52;49;
64138;PMS5003;50435;43.700;-79.318;2023-08-17T02:50:39;60;57;
64138;PMS5003;50435;43.700;-79.318;2023-08-17T02:53:06;53;53;
64138;PMS5003;50435;43.700;-79.318;2023-08-17T02:55:34;62;56;
64138;PMS5003;50435;43.700;-79.318;2023-08-17T02:58:01;67;55;
64138;PMS5003;50435;43.700;-79.318;2023-08-17T03:00:29;54;50;
64138;PMS5003;50435;43.700;-79.318;2023-08-17T03:02:56;52;51;
64138;PMS5003;50435;43.700;-79.318;2023-08-17T03:05:24;56;53;
64138;PMS5003;50435;43.700;-79.318;2023-08-17T03:07:51;53;49;
64138;PMS5003;50435;43.700;-79.318;2023-08-17T03:10:19;61;56;
64138;PMS5003;50435;43.700;-79.318;2023-08-17T03:12:47;64;56;
64138;PMS5003;50435;43.700;-79.318;2023-08-17T03:15:15;59;54;
64138;PMS5003;50435;43.700;-79.318;2023-08-17T03:17:42;63;54;
64138;PMS5003;50435;43.700;-79.318;2023-08-17T03:20:09;54;49;
64138;PMS5003;50435;43.700;-79.318;2023-08-17T03:22:37;54;49;
64138;PMS5003;50435;43.700;-79.318;2023-08-17T03:25:05;57;54;
64138;PMS5003;50435;43.700;-79.318;2023-08-17T03:27:33;56;51;
64138;PMS5003;50435;43.700;-79.318;2023-08-17T03:30:00;62;55;
64138;PMS5003;50435;43.700;-79.318;2023-08-17T03:32:27;58;54;
64138;PMS5003;50435;43.700;-79.318;2023-08-17T03:34:54;63;57;
64138;PMS5003;50435;43.700;-79.318;2023-08-17T03:37:22;64;55;
64138;PMS5003;50435;43.700;-79.318;2023-08-17T03:39:49;61;55;
64138;PMS5003;50435;43.700;-79.318;2023-08-17T03:42:16;53;48;
64138;PMS5003;50435;43.700;-79.318;2023-08-17T03:44:44;57;53;
64138;PMS5003;50435;43.700;-79.318;2023-08-17T03:47:11;65;56;
64138;PMS5003;50435;43.700;-79.318;2023-08-17T03:49:39;52;51;
64138;PMS5003;50435;43.700;-79.318;2023-08-17T03:52:07;62;58;
64138;PMS5003;50435;43.700;-79.318;2023-08-17T03:54:35;57;53;
64138;PMS5003;50435;43.700;-79.318;2023-08-17T03:57:03;59;54;
64138;PMS5003;50435;43.700;-79.318;2023-08-17T03:59:31;54;49;
64138;PMS5003;50435;43.700;-79.318;2023-08-17T04:01:59;64;55;
64138;PMS5003;50435;43.700;-79.318;2023-08-17T04:04:26;62;56;
64138;PMS5003;50435;43.700;-79.318;2023-08-17T04:06:53;54;51;
64138;PMS5003;50435;43.700;-79.318;2023-08-17T04:09:20;58;51;
64138;PMS5003;50435;43.700;-79.318;2023-08-17T04:11:48;62;58;
64138;PMS5003;50435;43.700;-79.318;2023-08-17T04:14:15;52;50;
64138;PMS5003;50435;43.700;-79.318;2023-08-17T04:16:43;63;58;
64138;PMS5003;50435;43.700;-79.318;2023-08-17T04:19:11;56;51;
64138;PMS5003;50435;43.700;-79.318;2023-08-17T04:21:38;53;49;
64138;PMS5003;50435;43.700;-79.318;2023-08-17T04:24:06;54;51;
64138;PMS5003;50435;43.700;-79.318;2023-08-17T04:26:33;63;55;
64138;PMS5003;50435;43.700;-79.318;2023-08-17T04:29:01;70;56;
64138;PMS5003;50435;43.700;-79.318;2023-08-17T04:31:28;62;57;
64138;PMS5003;50435;43.700;-79.318;2023-08-17T04:33:56;57;53;
64138;PMS5003;50435;43.700;-79.318;2023-08-17T04:36:24;63;55;
64138;PMS5003;50435;43.700;-79.318;2023-08-17T04:38:51;60;58;
64138;PMS5003;50435;43.700;-79.318;2023-08-17T04:41:19;61;58;
64138;PMS5003;50435;43.700;-79.318;2023-08-17T04:43:47;57;54;
64138;PMS5003;50435;43.700;-79.318;2023-08-17T04:46:14;62;57;
64138;PMS5003;50435;43.700;-79.318;2023-08-17T04:48:41;66;60;
64138;PMS5003;50435;43.700;-79.318;2023-08-17T04:51:08;62;55;
64138;PMS5003;50435;43.700;-79.318;2023-08-17T04:53:36;66;57;
64138;PMS5003;50435;43.700;-79.318;2023-08-17T04:56:04;60;57;
64138;PMS5003;50435;43.700;-79.318;2023-08-17T04:58:32;62;55;
64138;PMS5003;50435;43.700;-79.318;2023-08-17T05:00:59;58;54;
64138;PMS5003;50435;43.700;-79.318;2023-08-17T05:03:27;61;55;
64138;PMS5003;50435;43.700;-79.318;2023-08-17T05:05:54;57;51;
64138;PMS5003;50435;43.700;-79.318;2023-08-17T05:08:21;63;56;
64138;PMS5003;50435;43.700;-79.318;2023-08-17T05:10:49;57;54;
64138;PMS5003;50435;43.700;-79.318;2023-08-17T05:13:16;60;54;
64138;PMS5003;50435;43.700;-79.318;2023-08-17T05:15:43;52;48;
64138;PMS5003;50435;43.700;-79.318;2023-08-17T05:18:11;66;58;
64138;PMS5003;50435;43.700;-79.318;2023-08-17T05:20:39;59;54;
64138;PMS5003;50435;43.700;-79.318;2023-08-17T05:23:07;55;54;
64138;PMS5003;50435;43.700;-79.318;2023-08-17T05:25:34;61;57;
64138;PMS5003;50435;43.700;-79.318;2023-08-17T05:28:02;57;54;
64138;PMS5003;50435;43.700;-79.318;2023-08-17T05:30:30;57;54;
64138;PMS5003;50435;43.700;-79.318;2023-08-17T05:32:57;61;50;
64138;PMS5003;50435;43.700;-79.318;2023-08-17T05:35:25;58;51;
64138;PMS5003;50435;43.700;-79.318;2023-08-17T05:37:53;64;57;
64138;PMS5003;50435;43.700;-79.318;2023-08-17T05:40:20;49;45;
64138;PMS5003;50435;43.700;-79.318;2023-08-17T05:42:47;60;52;
64138;PMS5003;50435;43.700;-79.318;2023-08-17T05:45:14;56;48;
64138;PMS5003;50435;43.700;-79.318;2023-08-17T05:47:42;58;54;
64138;PMS5003;50435;43.700;-79.318;2023-08-17T05:50:09;57;57;
64138;PMS5003;50435;43.700;-79.318;2023-08-17T05:52:37;56;52;
64138;PMS5003;50435;43.700;-79.318;2023-08-17T05:55:05;62;54;
64138;PMS5003;50435;43.700;-79.318;2023-08-17T05:57:33;55;51;
64138;PMS5003;50435;43.700;-79.318;2023-08-17T06:00:01;63;54;
64138;PMS5003;50435;43.700;-79.318;2023-08-17T06:02:29;57;53;
64138;PMS5003;50435;43.700;-79.318;2023-08-17T06:04:56;54;48;
64138;PMS5003;50435;43.700;-79.318;2023-08-17T06:07:24;55;53;
64138;PMS5003;50435;43.700;-79.318;2023-08-17T06:09:51;59;55;
64138;PMS5003;50435;43.700;-79.318;2023-08-17T06:12:19;51;46;
64138;PMS5003;50435;43.700;-79.318;2023-08-17T06:14:46;54;47;
64138;PMS5003;50435;43.700;-79.318;2023-08-17T06:17:14;59;52;
64138;PMS5003;50435;43.700;-79.318;2023-08-17T06:19:41;59;54;
64138;PMS5003;50435;43.700;-79.318;2023-08-17T06:22:08;59;53;
64138;PMS5003;50435;43.700;-79.318;2023-08-17T06:24:36;61;53;
64138;PMS5003;50435;43.700;-79.318;2023-08-17T06:27:03;57;51;
64138;PMS5003;50435;43.700;-79.318;2023-08-17T06:29:31;55;52;
64138;PMS5003;50435;43.700;-79.318;2023-08-17T06:31:59;58;51;
64138;PMS5003;50435;43.700;-79.318;2023-08-17T06:34:26;56;49;
64138;PMS5003;50435;43.700;-79.318;2023-08-17T06:36:57;66;57;
64138;PMS5003;50435;43.700;-79.318;2023-08-17T06:39:25;54;53;
64138;PMS5003;50435;43.700;-79.318;2023-08-17T06:41:53;49;47;
64138;PMS5003;50435;43.700;-79.318;2023-08-17T06:44:20;56;53;
64138;PMS5003;50435;43.700;-79.318;2023-08-17T06:46:47;50;48;
64138;PMS5003;50435;43.700;-79.318;2023-08-17T06:49:15;53;46;
64138;PMS5003;50435;43.700;-79.318;2023-08-17T06:51:43;53;51;
64138;PMS5003;50435;43.700;-79.318;2023-08-17T06:54:10;58;51;
64138;PMS5003;50435;43.700;-79.318;2023-08-17T06:56:37;52;46;
64138;PMS5003;50435;43.700;-79.318;2023-08-17T06:59:05;49;49;
64138;PMS5003;50435;43.700;-79.318;2023-08-17T07:01:32;58;51;
64138;PMS5003;50435;43.700;-79.318;2023-08-17T07:03:59;54;52;
64138;PMS5003;50435;43.700;-79.318;2023-08-17T07:06:27;56;51;
64138;PMS5003;50435;43.700;-79.318;2023-08-17T07:08:55;57;48;
64138;PMS5003;50435;43.700;-79.318;2023-08-17T07:11:22;51;47;
64138;PMS5003;50435;43.700;-79.318;2023-08-17T07:13:49;53;51;
64138;PMS5003;50435;43.700;-79.318;2023-08-17T07:16:17;55;50;
64138;PMS5003;50435;43.700;-79.318;2023-08-17T07:18:44;53;49;
64138;PMS5003;50435;43.700;-79.318;2023-08-17T07:21:12;60;52;
64138;PMS5003;50435;43.700;-79.318;2023-08-17T07:23:39;56;54;
64138;PMS5003;50435;43.700;-79.318;2023-08-17T07:26:09;48;47;
64138;PMS5003;50435;43.700;-79.318;2023-08-17T07:28:37;53;50;
64138;PMS5003;50435;43.700;-79.318;2023-08-17T07:31:04;53;50;
64138;PMS5003;50435;43.700;-79.318;2023-08-17T07:33:32;52;49;
64138;PMS5003;50435;43.700;-79.318;2023-08-17T07:35:59;56;51;
64138;PMS5003;50435;43.700;-79.318;2023-08-17T07:38:26;50;42;
64138;PMS5003;50435;43.700;-79.318;2023-08-17T07:40:54;59;52;
64138;PMS5003;50435;43.700;-79.318;2023-08-17T07:43:22;47;46;
64138;PMS5003;50435;43.700;-79.318;2023-08-17T07:45:53;52;52;
64138;PMS5003;50435;43.700;-79.318;2023-08-17T07:48:21;50;48;
64138;PMS5003;50435;43.700;-79.318;2023-08-17T07:50:49;52;49;
64138;PMS5003;50435;43.700;-79.318;2023-08-17T07:53:18;54;49;
64138;PMS5003;50435;43.700;-79.318;2023-08-17T07:55:46;53;48;
64138;PMS5003;50435;43.700;-79.318;2023-08-17T07:58:13;59;49;
64138;PMS5003;50435;43.700;-79.318;2023-08-17T08:00:41;50;49;
64138;PMS5003;50435;43.700;-79.318;2023-08-17T08:03:08;54;46;
64138;PMS5003;50435;43.700;-79.318;2023-08-17T08:05:36;56;50;
64138;PMS5003;50435;43.700;-79.318;2023-08-17T08:08:04;59;52;
64138;PMS5003;50435;43.700;-79.318;2023-08-17T08:10:31;58;51;
64138;PMS5003;50435;43.700;-79.318;2023-08-17T08:12:59;58;53;
64138;PMS5003;50435;43.700;-79.318;2023-08-17T08:15:27;54;51;
64138;PMS5003;50435;43.700;-79.318;2023-08-17T08:17:54;54;51;
64138;PMS5003;50435;43.700;-79.318;2023-08-17T08:20:21;52;45;
64138;PMS5003;50435;43.700;-79.318;2023-08-17T08:22:49;52;47;
64138;PMS5003;50435;43.700;-79.318;2023-08-17T08:25:17;50;49;
64138;PMS5003;50435;43.700;-79.318;2023-08-17T08:27:44;45;41;
64138;PMS5003;50435;43.700;-79.318;2023-08-17T08:30:11;46;46;
64138;PMS5003;50435;43.700;-79.318;2023-08-17T08:32:39;53;47;
64138;PMS5003;50435;43.700;-79.318;2023-08-17T08:35:06;56;54;
64138;PMS5003;50435;43.700;-79.318;2023-08-17T08:37:34;60;49;
64138;PMS5003;50435;43.700;-79.318;2023-08-17T08:40:02;54;48;
64138;PMS5003;50435;43.700;-79.318;2023-08-17T08:42:31;52;49;
64138;PMS5003;50435;43.700;-79.318;2023-08-17T08:44:59;51;49;
64138;PMS5003;50435;43.700;-79.318;2023-08-17T08:47:26;56;51;
64138;PMS5003;50435;43.700;-79.318;2023-08-17T08:49:58;47;45;
64138;PMS5003;50435;43.700;-79.318;2023-08-17T08:52:28;54;50;
64138;PMS5003;50435;43.700;-79.318;2023-08-17T08:55:00;56;49;
64138;PMS5003;50435;43.700;-79.318;2023-08-17T08:57:38;52;50;
64138;PMS5003;50435;43.700;-79.318;2023-08-17T09:00:06;52;49;
64138;PMS5003;50435;43.700;-79.318;2023-08-17T09:02:34;52;45;
64138;PMS5003;50435;43.700;-79.318;2023-08-17T09:05:04;49;45;
64138;PMS5003;50435;43.700;-79.318;2023-08-17T09:07:33;55;51;
64138;PMS5003;50435;43.700;-79.318;2023-08-17T09:10:02;51;46;
64138;PMS5003;50435;43.700;-79.318;2023-08-17T09:12:30;48;48;
64138;PMS5003;50435;43.700;-79.318;2023-08-17T09:14:58;54;48;
64138;PMS5003;50435;43.700;-79.318;2023-08-17T09:17:26;54;48;
64138;PMS5003;50435;43.700;-79.318;2023-08-17T09:19:54;54;49;
64138;PMS5003;50435;43.700;-79.318;2023-08-17T09:22:23;49;45;
64138;PMS5003;50435;43.700;-79.318;2023-08-17T09:24:51;51;50;
64138;PMS5003;50435;43.700;-79.318;2023-08-17T09:27:20;50;47;
64138;PMS5003;50435;43.700;-79.318;2023-08-17T09:29:47;56;47;
64138;PMS5003;50435;43.700;-79.318;2023-08-17T09:32:15;48;44;
64138;PMS5003;50435;43.700;-79.318;2023-08-17T09:34:43;52;49;
64138;PMS5003;50435;43.700;-79.318;2023-08-17T09:37:11;50;46;
64138;PMS5003;50435;43.700;-79.318;2023-08-17T09:39:39;57;48;
64138;PMS5003;50435;43.700;-79.318;2023-08-17T09:42:07;57;49;
64138;PMS5003;50435;43.700;-79.318;2023-08-17T09:44:36;55;48;
64138;PMS5003;50435;43.700;-79.318;2023-08-17T09:47:05;51;44;
64138;PMS5003;50435;43.700;-79.318;2023-08-17T09:49:33;43;39;
64138;PMS5003;50435;43.700;-79.318;2023-08-17T09:52:00;55;51;
64138;PMS5003;50435;43.700;-79.318;2023-08-17T09:54:27;43;42;
64138;PMS5003;50435;43.700;-79.318;2023-08-17T09:56:58;52;49;
64138;PMS5003;50435;43.700;-79.318;2023-08-17T09:59:25;52;49;
64138;PMS5003;50435;43.700;-79.318;2023-08-17T10:01:53;52;48;
64138;PMS5003;50435;43.700;-79.318;2023-08-17T10:04:23;45;43;
64138;PMS5003;50435;43.700;-79.318;2023-08-17T10:06:54;49;47;
64138;PMS5003;50435;43.700;-79.318;2023-08-17T10:09:27;50;48;
64138;PMS5003;50435;43.700;-79.318;2023-08-17T10:11:58;53;45;
64138;PMS5003;50435;43.700;-79.318;2023-08-17T10:14:35;55;51;
64138;PMS5003;50435;43.700;-79.318;2023-08-17T10:17:06;53;51;
64138;PMS5003;50435;43.700;-79.318;2023-08-17T10:19:37;47;44;
64138;PMS5003;50435;43.700;-79.318;2023-08-17T10:22:11;51;48;
64138;PMS5003;50435;43.700;-79.318;2023-08-17T10:24:45;50;45;
64138;PMS5003;50435;43.700;-79.318;2023-08-17T10:27:13;43;43;
64138;PMS5003;50435;43.700;-79.318;2023-08-17T10:29:43;47;46;
64138;PMS5003;50435;43.700;-79.318;2023-08-17T10:32:11;49;46;
64138;PMS5003;50435;43.700;-79.318;2023-08-17T10:34:39;52;48;
64138;PMS5003;50435;43.700;-79.318;2023-08-17T10:37:07;51;48;
64138;PMS5003;50435;43.700;-79.318;2023-08-17T10:39:36;47;45;
64138;PMS5003;50435;43.700;-79.318;2023-08-17T10:42:11;50;47;
64138;PMS5003;50435;43.700;-79.318;2023-08-17T10:44:40;52;48;
64138;PMS5003;50435;43.700;-79.318;2023-08-17T10:47:26;53;50;
64138;PMS5003;50435;43.700;-79.318;2023-08-17T10:49:56;45;43;
64138;PMS5003;50435;43.700;-79.318;2023-08-17T10:52:25;44;40;
64138;PMS5003;50435;43.700;-79.318;2023-08-17T10:54:55;46;42;
64138;PMS5003;50435;43.700;-79.318;2023-08-17T10:57:31;49;42;
64138;PMS5003;50435;43.700;-79.318;2023-08-17T11:00:07;49;44;
64138;PMS5003;50435;43.700;-79.318;2023-08-17T11:02:40;48;40;
64138;PMS5003;50435;43.700;-79.318;2023-08-17T11:05:09;42;41;
64138;PMS5003;50435;43.700;-79.318;2023-08-17T11:07:39;44;42;
64138;PMS5003;50435;43.700;-79.318;2023-08-17T11:10:11;41;39;
64138;PMS5003;50435;43.700;-79.318;2023-08-17T11:12:41;40;38;
64138;PMS5003;50435;43.700;-79.318;2023-08-17T11:15:09;49;48;
64138;PMS5003;50435;43.700;-79.318;2023-08-17T11:17:36;43;41;
64138;PMS5003;50435;43.700;-79.318;2023-08-17T11:20:04;40;38;
64138;PMS5003;50435;43.700;-79.318;2023-08-17T11:22:32;42;38;
64138;PMS5003;50435;43.700;-79.318;2023-08-17T11:25:00;41;40;
64138;PMS5003;50435;43.700;-79.318;2023-08-17T11:27:30;40;36;
64138;PMS5003;50435;43.700;-79.318;2023-08-17T11:29:58;42;37;
64138;PMS5003;50435;43.700;-79.318;2023-08-17T11:32:25;43;38;
64138;PMS5003;50435;43.700;-79.318;2023-08-17T11:34:53;46;41;
64138;PMS5003;50435;43.700;-79.318;2023-08-17T11:37:20;44;40;
64138;PMS5003;50435;43.700;-79.318;2023-08-17T11:39:48;39;35;
64138;PMS5003;50435;43.700;-79.318;2023-08-17T11:42:15;44;41;
64138;PMS5003;50435;43.700;-79.318;2023-08-17T11:44:43;37;35;
64138;PMS5003;50435;43.700;-79.318;2023-08-17T11:47:10;41;36;
64138;PMS5003;50435;43.700;-79.318;2023-08-17T11:49:38;40;38;
64138;PMS5003;50435;43.700;-79.318;2023-08-17T11:52:08;44;42;
64138;PMS5003;50435;43.700;-79.318;2023-08-17T11:54:39;43;40;
64138;PMS5003;50435;43.700;-79.318;2023-08-17T11:57:07;48;43;
64138;PMS5003;50435;43.700;-79.318;2023-08-17T11:59:35;40;37;
64138;PMS5003;50435;43.700;-79.318;2023-08-17T12:02:02;38;36;
64138;PMS5003;50435;43.700;-79.318;2023-08-17T12:04:30;44;41;
64138;PMS5003;50435;43.700;-79.318;2023-08-17T12:06:58;38;36;
64138;PMS5003;50435;43.700;-79.318;2023-08-17T12:09:26;38;36;
64138;PMS5003;50435;43.700;-79.318;2023-08-17T12:11:58;46;39;
64138;PMS5003;50435;43.700;-79.318;2023-08-17T12:14:26;36;35;
64138;PMS5003;50435;43.700;-79.318;2023-08-17T12:16:55;43;40;
64138;PMS5003;50435;43.700;-79.318;2023-08-17T12:19:24;40;40;
64138;PMS5003;50435;43.700;-79.318;2023-08-17T12:21:52;45;45;
64138;PMS5003;50435;43.700;-79.318;2023-08-17T12:24:20;43;39;
64138;PMS5003;50435;43.700;-79.318;2023-08-17T12:26:51;39;37;
64138;PMS5003;50435;43.700;-79.318;2023-08-17T12:29:19;45;42;
64138;PMS5003;50435;43.700;-79.318;2023-08-17T12:31:46;40;36;
64138;PMS5003;50435;43.700;-79.318;2023-08-17T12:34:14;37;36;
64138;PMS5003;50435;43.700;-79.318;2023-08-17T12:36:42;43;42;
64138;PMS5003;50435;43.700;-79.318;2023-08-17T12:39:10;43;37;
64138;PMS5003;50435;43.700;-79.318;2023-08-17T12:41:38;37;37;
64138;PMS5003;50435;43.700;-79.318;2023-08-17T12:44:05;47;45;
64138;PMS5003;50435;43.700;-79.318;2023-08-17T12:46:32;44;41;
64138;PMS5003;50435;43.700;-79.318;2023-08-17T12:49:00;44;44;
64138;PMS5003;50435;43.700;-79.318;2023-08-17T12:51:27;48;40;
64138;PMS5003;50435;43.700;-79.318;2023-08-17T12:53:55;47;40;
64138;PMS5003;50435;43.700;-79.318;2023-08-17T12:56:22;56;46;
64138;PMS5003;50435;43.700;-79.318;2023-08-17T12:58:49;47;44;
64138;PMS5003;50435;43.700;-79.318;2023-08-17T13:01:17;44;41;
64138;PMS5003;50435;43.700;-79.318;2023-08-17T13:03:44;51;44;
64138;PMS5003;50435;43.700;-79.318;2023-08-17T13:06:12;52;46;
64138;PMS5003;50435;43.700;-79.318;2023-08-17T13:08:39;52;50;
64138;PMS5003;50435;43.700;-79.318;2023-08-17T13:11:06;52;49;
64138;PMS5003;50435;43.700;-79.318;2023-08-17T13:13:34;49;48;
64138;PMS5003;50435;43.700;-79.318;2023-08-17T13:16:01;48;44;
64138;PMS5003;50435;43.700;-79.318;2023-08-17T13:18:28;52;47;
64138;PMS5003;50435;43.700;-79.318;2023-08-17T13:20:56;52;49;
64138;PMS5003;50435;43.700;-79.318;2023-08-17T13:23:23;55;50;
64138;PMS5003;50435;43.700;-79.318;2023-08-17T13:25:50;49;43;
64138;PMS5003;50435;43.700;-79.318;2023-08-17T13:28:18;53;47;
64138;PMS5003;50435;43.700;-79.318;2023-08-17T13:30:46;51;45;
64138;PMS5003;50435;43.700;-79.318;2023-08-17T13:33:13;49;47;
64138;PMS5003;50435;43.700;-79.318;2023-08-17T13:35:41;51;45;
64138;PMS5003;50435;43.700;-79.318;2023-08-17T13:38:09;46;44;
64138;PMS5003;50435;43.700;-79.318;2023-08-17T13:40:37;52;48;
64138;PMS5003;50435;43.700;-79.318;2023-08-17T13:43:05;49;46;
64138;PMS5003;50435;43.700;-79.318;2023-08-17T13:45:32;48;45;
64138;PMS5003;50435;43.700;-79.318;2023-08-17T13:47:59;50;47;
64138;PMS5003;50435;43.700;-79.318;2023-08-17T13:50:27;50;44;
64138;PMS5003;50435;43.700;-79.318;2023-08-17T13:52:54;47;44;
64138;PMS5003;50435;43.700;-79.318;2023-08-17T13:55:21;49;46;
64138;PMS5003;50435;43.700;-79.318;2023-08-17T13:57:48;52;48;
64138;PMS5003;50435;43.700;-79.318;2023-08-17T14:00:16;46;44;
64138;PMS5003;50435;43.700;-79.318;2023-08-17T14:02:44;48;44;
64138;PMS5003;50435;43.700;-79.318;2023-08-17T14:05:11;47;43;
64138;PMS5003;50435;43.700;-79.318;2023-08-17T14:07:39;53;46;
64138;PMS5003;50435;43.700;-79.318;2023-08-17T14:10:07;44;42;
64138;PMS5003;50435;43.700;-79.318;2023-08-17T14:12:35;54;50;
64138;PMS5003;50435;43.700;-79.318;2023-08-17T14:15:03;57;51;
64138;PMS5003;50435;43.700;-79.318;2023-08-17T14:17:31;48;41;
64138;PMS5003;50435;43.700;-79.318;2023-08-17T14:19:58;49;46;
64138;PMS5003;50435;43.700;-79.318;2023-08-17T14:22:26;49;45;
64138;PMS5003;50435;43.700;-79.318;2023-08-17T14:24:53;50;45;
64138;PMS5003;50435;43.700;-79.318;2023-08-17T14:27:21;47;41;
64138;PMS5003;50435;43.700;-79.318;2023-08-17T14:29:49;48;43;
64138;PMS5003;50435;43.700;-79.318;2023-08-17T14:32:16;54;44;
64138;PMS5003;50435;43.700;-79.318;2023-08-17T14:34:43;50;46;
64138;PMS5003;50435;43.700;-79.318;2023-08-17T14:37:11;52;44;
64138;PMS5003;50435;43.700;-79.318;2023-08-17T14:39:39;48;43;
64138;PMS5003;50435;43.700;-79.318;2023-08-17T14:42:06;54;44;
64138;PMS5003;50435;43.700;-79.318;2023-08-17T14:44:33;48;44;
64138;PMS5003;50435;43.700;-79.318;2023-08-17T14:47:00;41;38;
64138;PMS5003;50435;43.700;-79.318;2023-08-17T14:49:28;45;42;
64138;PMS5003;50435;43.700;-79.318;2023-08-17T14:51:56;39;37;
64138;PMS5003;50435;43.700;-79.318;2023-08-17T14:54:23;45;45;
64138;PMS5003;50435;43.700;-79.318;2023-08-17T14:56:51;56;49;
64138;PMS5003;50435;43.700;-79.318;2023-08-17T14:59:18;59;54;
64138;PMS5003;50435;43.700;-79.318;2023-08-17T15:01:46;49;43;
64138;PMS5003;50435;43.700;-79.318;2023-08-17T15:04:13;45;41;
64138;PMS5003;50435;43.700;-79.318;2023-08-17T15:06:40;52;45;
64138;PMS5003;50435;43.700;-79.318;2023-08-17T15:09:07;53;45;
64138;PMS5003;50435;43.700;-79.318;2023-08-17T15:11:35;45;39;
64138;PMS5003;50435;43.700;-79.318;2023-08-17T15:14:02;48;44;
64138;PMS5003;50435;43.700;-79.318;2023-08-17T15:16:30;47;44;
64138;PMS5003;50435;43.700;-79.318;2023-08-17T15:18:58;39;37;
64138;PMS5003;50435;43.700;-79.318;2023-08-17T15:21:25;45;40;
64138;PMS5003;50435;43.700;-79.318;2023-08-17T15:23:53;44;43;
64138;PMS5003;50435;43.700;-79.318;2023-08-17T15:26:20;44;38;
64138;PMS5003;50435;43.700;-79.318;2023-08-17T15:28:47;46;40;
64138;PMS5003;50435;43.700;-79.318;2023-08-17T15:31:15;43;37;
64138;PMS5003;50435;43.700;-79.318;2023-08-17T15:33:42;49;37;
64138;PMS5003;50435;43.700;-79.318;2023-08-17T15:36:10;43;40;
64138;PMS5003;50435;43.700;-79.318;2023-08-17T15:38:38;48;39;
64138;PMS5003;50435;43.700;-79.318;2023-08-17T15:41:05;53;42;
64138;PMS5003;50435;43.700;-79.318;2023-08-17T15:43:33;37;34;
64138;PMS5003;50435;43.700;-79.318;2023-08-17T15:46:01;41;36;
64138;PMS5003;50435;43.700;-79.318;2023-08-17T15:48:29;39;38;
64138;PMS5003;50435;43.700;-79.318;2023-08-17T15:50:57;42;40;